weather.gov     
National Weather Service

Terminal Aerodrome Forecast
NWS Homepage
This page is being discontinued on March 12, 2014.
The same data is available at this site. Please update your bookmarks.
Thank you, and we apologize for the inconvenience.
Please send an email to SR-SRH.Webmaster@noaa.gov with any concerns.


Current Version
Previous Version:    01  02  03  04  05  06  07  08  09  10  11  12  13  14  15  16  17  18  19  20  21  22  23  24  25  26  27  
[Printable]
258
FTAK31 PAFA 182339
TAFAGA
TAF
PAGA 182339Z 1900/1924 06005KT P6SM VCSH SCT040 BKN070 BKN150
     FM190700 04003KT P6SM SCT050 BKN100
     FM191200 04003KT P6SM VCFG FEW001 SCT060 BKN120
     FM191700 VRB05KT P6SM SCT070 SCT120=




258
FTAK31 PAFA 182339
TAFAGA
TAF
PAGA 182339Z 1900/1924 06005KT P6SM VCSH SCT040 BKN070 BKN150
     FM190700 04003KT P6SM SCT050 BKN100
     FM191200 04003KT P6SM VCFG FEW001 SCT060 BKN120
     FM191700 VRB05KT P6SM SCT070 SCT120=


U.S. Dept. of Commerce
NOAA National Weather Service
1325 East West Highway
Silver Spring, MD 20910
E-mail: w-nws.webmaster@noaa.gov
Page last modified: May 16, 2007
NATIONAL WEATHER SERVICE: for Safety, for Work, for Fun - FOR LIFE